sensor_id;sensor_type;location;lat;lon;timestamp;temperature;humidity
12335;DHT22;6233;51.560;9.986;2023-01-31T00:00:25;2.70;99.90
12335;DHT22;6233;51.560;9.986;2023-01-31T00:03:27;2.60;99.90
12335;DHT22;6233;51.560;9.986;2023-01-31T00:06:35;2.60;99.90
12335;DHT22;6233;51.560;9.986;2023-01-31T00:09:37;2.60;99.90
12335;DHT22;6233;51.560;9.986;2023-01-31T00:12:40;2.60;99.90
12335;DHT22;6233;51.560;9.986;2023-01-31T00:15:41;2.60;99.90
12335;DHT22;6233;51.560;9.986;2023-01-31T00:18:44;2.60;99.90
12335;DHT22;6233;51.560;9.986;2023-01-31T00:21:45;2.60;99.90
12335;DHT22;6233;51.560;9.986;2023-01-31T00:24:47;2.70;99.90
12335;DHT22;6233;51.560;9.986;2023-01-31T00:27:49;2.70;99.90
12335;DHT22;6233;51.560;9.986;2023-01-31T00:30:50;2.80;99.90
12335;DHT22;6233;51.560;9.986;2023-01-31T00:33:53;2.80;99.90
12335;DHT22;6233;51.560;9.986;2023-01-31T00:36:55;2.80;99.90
12335;DHT22;6233;51.560;9.986;2023-01-31T00:39:57;2.70;99.90
12335;DHT22;6233;51.560;9.986;2023-01-31T00:42:58;2.70;99.90
12335;DHT22;6233;51.560;9.986;2023-01-31T00:46:00;2.70;99.90
12335;DHT22;6233;51.560;9.986;2023-01-31T00:49:02;2.60;99.90
12335;DHT22;6233;51.560;9.986;2023-01-31T00:52:04;2.60;99.90
12335;DHT22;6233;51.560;9.986;2023-01-31T00:55:06;2.70;99.90
12335;DHT22;6233;51.560;9.986;2023-01-31T00:58:07;2.70;99.90
12335;DHT22;6233;51.560;9.986;2023-01-31T01:01:15;2.70;99.90
12335;DHT22;6233;51.560;9.986;2023-01-31T01:04:17;2.70;99.90
12335;DHT22;6233;51.560;9.986;2023-01-31T01:07:19;2.60;99.90
12335;DHT22;6233;51.560;9.986;2023-01-31T01:10:21;2.70;99.90
12335;DHT22;6233;51.560;9.986;2023-01-31T01:13:22;2.70;99.90
12335;DHT22;6233;51.560;9.986;2023-01-31T01:16:29;2.70;99.90
12335;DHT22;6233;51.560;9.986;2023-01-31T01:19:32;2.70;99.90
12335;DHT22;6233;51.560;9.986;2023-01-31T01:22:34;2.70;99.90
12335;DHT22;6233;51.560;9.986;2023-01-31T01:25:42;2.70;99.90
12335;DHT22;6233;51.560;9.986;2023-01-31T01:28:44;2.70;99.90
12335;DHT22;6233;51.560;9.986;2023-01-31T01:31:46;2.70;99.90
12335;DHT22;6233;51.560;9.986;2023-01-31T01:34:48;2.70;99.90
12335;DHT22;6233;51.560;9.986;2023-01-31T01:37:50;2.70;99.90
12335;DHT22;6233;51.560;9.986;2023-01-31T01:40:51;2.70;99.90
12335;DHT22;6233;51.560;9.986;2023-01-31T01:43:55;2.70;99.90
12335;DHT22;6233;51.560;9.986;2023-01-31T01:46:58;2.70;99.90
12335;DHT22;6233;51.560;9.986;2023-01-31T01:56:31;2.70;99.90
12335;DHT22;6233;51.560;9.986;2023-01-31T01:59:39;2.70;99.90
12335;DHT22;6233;51.560;9.986;2023-01-31T02:02:43;2.70;99.90
12335;DHT22;6233;51.560;9.986;2023-01-31T02:05:53;2.80;99.90
12335;DHT22;6233;51.560;9.986;2023-01-31T02:08:55;2.80;99.90
12335;DHT22;6233;51.560;9.986;2023-01-31T02:11:58;2.80;99.90
12335;DHT22;6233;51.560;9.986;2023-01-31T02:14:59;2.70;99.90
12335;DHT22;6233;51.560;9.986;2023-01-31T02:18:01;2.70;99.90
12335;DHT22;6233;51.560;9.986;2023-01-31T02:25:28;2.70;99.90
12335;DHT22;6233;51.560;9.986;2023-01-31T02:28:30;2.70;99.90
12335;DHT22;6233;51.560;9.986;2023-01-31T02:48:52;2.70;99.90
12335;DHT22;6233;51.560;9.986;2023-01-31T02:51:56;2.70;99.90
12335;DHT22;6233;51.560;9.986;2023-01-31T02:58:38;2.70;99.90
12335;DHT22;6233;51.560;9.986;2023-01-31T03:01:46;2.70;99.90
12335;DHT22;6233;51.560;9.986;2023-01-31T03:04:48;2.70;99.90
12335;DHT22;6233;51.560;9.986;2023-01-31T03:07:57;2.70;99.90
12335;DHT22;6233;51.560;9.986;2023-01-31T03:11:03;2.60;99.90
12335;DHT22;6233;51.560;9.986;2023-01-31T03:14:24;2.70;99.90
12335;DHT22;6233;51.560;9.986;2023-01-31T03:21:24;2.70;99.90
12335;DHT22;6233;51.560;9.986;2023-01-31T03:24:28;2.70;99.90
12335;DHT22;6233;51.560;9.986;2023-01-31T03:27:31;2.70;99.90
12335;DHT22;6233;51.560;9.986;2023-01-31T03:34:05;2.70;99.90
12335;DHT22;6233;51.560;9.986;2023-01-31T03:37:16;2.70;99.90
12335;DHT22;6233;51.560;9.986;2023-01-31T03:40:30;2.70;99.90
12335;DHT22;6233;51.560;9.986;2023-01-31T03:43:49;2.70;99.90
12335;DHT22;6233;51.560;9.986;2023-01-31T03:46:59;2.70;99.90
12335;DHT22;6233;51.560;9.986;2023-01-31T03:50:06;2.60;99.90
12335;DHT22;6233;51.560;9.986;2023-01-31T03:53:15;2.60;99.90
12335;DHT22;6233;51.560;9.986;2023-01-31T03:59:25;2.50;99.90
12335;DHT22;6233;51.560;9.986;2023-01-31T04:02:34;2.50;99.90
12335;DHT22;6233;51.560;9.986;2023-01-31T04:05:36;2.50;99.90
12335;DHT22;6233;51.560;9.986;2023-01-31T04:08:38;2.50;99.90
12335;DHT22;6233;51.560;9.986;2023-01-31T04:11:41;2.50;99.90
12335;DHT22;6233;51.560;9.986;2023-01-31T04:14:43;2.60;99.90
12335;DHT22;6233;51.560;9.986;2023-01-31T04:17:45;2.60;99.90
12335;DHT22;6233;51.560;9.986;2023-01-31T04:20:47;2.60;99.90
12335;DHT22;6233;51.560;9.986;2023-01-31T04:23:49;2.60;99.90
12335;DHT22;6233;51.560;9.986;2023-01-31T04:26:50;2.60;99.90
12335;DHT22;6233;51.560;9.986;2023-01-31T04:29:52;2.60;99.90
12335;DHT22;6233;51.560;9.986;2023-01-31T04:32:54;2.60;99.90
12335;DHT22;6233;51.560;9.986;2023-01-31T04:35:56;2.60;99.90
12335;DHT22;6233;51.560;9.986;2023-01-31T04:38:57;2.60;99.90
12335;DHT22;6233;51.560;9.986;2023-01-31T04:42:01;2.60;99.90
12335;DHT22;6233;51.560;9.986;2023-01-31T04:45:03;2.70;99.90
12335;DHT22;6233;51.560;9.986;2023-01-31T04:48:05;2.60;99.90
12335;DHT22;6233;51.560;9.986;2023-01-31T04:51:07;2.60;99.90
12335;DHT22;6233;51.560;9.986;2023-01-31T04:54:09;2.70;99.90
12335;DHT22;6233;51.560;9.986;2023-01-31T04:57:11;2.70;99.90
12335;DHT22;6233;51.560;9.986;2023-01-31T05:00:13;2.70;99.90
12335;DHT22;6233;51.560;9.986;2023-01-31T05:03:15;2.70;99.90
12335;DHT22;6233;51.560;9.986;2023-01-31T05:06:17;2.80;99.90
12335;DHT22;6233;51.560;9.986;2023-01-31T05:09:19;2.80;99.90
12335;DHT22;6233;51.560;9.986;2023-01-31T05:12:21;2.80;99.90
12335;DHT22;6233;51.560;9.986;2023-01-31T05:15:23;2.70;99.90
12335;DHT22;6233;51.560;9.986;2023-01-31T05:18:24;2.80;99.90
12335;DHT22;6233;51.560;9.986;2023-01-31T05:21:26;2.80;99.90
12335;DHT22;6233;51.560;9.986;2023-01-31T05:24:30;2.80;99.90
12335;DHT22;6233;51.560;9.986;2023-01-31T05:27:33;2.80;99.90
12335;DHT22;6233;51.560;9.986;2023-01-31T05:30:35;2.80;99.90
12335;DHT22;6233;51.560;9.986;2023-01-31T05:33:37;2.80;99.90
12335;DHT22;6233;51.560;9.986;2023-01-31T05:36:38;2.80;99.90
12335;DHT22;6233;51.560;9.986;2023-01-31T05:39:40;2.90;99.90
12335;DHT22;6233;51.560;9.986;2023-01-31T05:42:42;2.90;99.90
12335;DHT22;6233;51.560;9.986;2023-01-31T05:45:46;2.90;99.90
12335;DHT22;6233;51.560;9.986;2023-01-31T05:48:48;2.90;99.90
12335;DHT22;6233;51.560;9.986;2023-01-31T05:51:50;2.90;99.90
12335;DHT22;6233;51.560;9.986;2023-01-31T05:54:52;2.90;99.90
12335;DHT22;6233;51.560;9.986;2023-01-31T05:57:54;2.90;99.90
12335;DHT22;6233;51.560;9.986;2023-01-31T06:00:56;2.90;99.90
12335;DHT22;6233;51.560;9.986;2023-01-31T06:03:58;3.00;99.90
12335;DHT22;6233;51.560;9.986;2023-01-31T06:07:00;3.00;99.90
12335;DHT22;6233;51.560;9.986;2023-01-31T06:10:02;3.00;99.90
12335;DHT22;6233;51.560;9.986;2023-01-31T06:13:15;3.00;99.90
12335;DHT22;6233;51.560;9.986;2023-01-31T06:16:16;3.10;99.90
12335;DHT22;6233;51.560;9.986;2023-01-31T06:19:18;3.10;99.90
12335;DHT22;6233;51.560;9.986;2023-01-31T06:22:25;3.10;99.90
12335;DHT22;6233;51.560;9.986;2023-01-31T06:25:27;3.10;99.90
12335;DHT22;6233;51.560;9.986;2023-01-31T06:28:29;3.10;99.90
12335;DHT22;6233;51.560;9.986;2023-01-31T06:31:31;3.10;99.90
12335;DHT22;6233;51.560;9.986;2023-01-31T06:34:33;3.10;99.90
12335;DHT22;6233;51.560;9.986;2023-01-31T06:37:35;3.10;99.90
12335;DHT22;6233;51.560;9.986;2023-01-31T06:40:37;3.10;99.90
12335;DHT22;6233;51.560;9.986;2023-01-31T06:43:39;3.10;99.90
12335;DHT22;6233;51.560;9.986;2023-01-31T06:46:40;3.10;99.90
12335;DHT22;6233;51.560;9.986;2023-01-31T06:49:42;3.10;99.90
12335;DHT22;6233;51.560;9.986;2023-01-31T06:52:44;3.10;99.90
12335;DHT22;6233;51.560;9.986;2023-01-31T06:55:46;3.20;99.90
12335;DHT22;6233;51.560;9.986;2023-01-31T06:58:48;3.20;99.90
12335;DHT22;6233;51.560;9.986;2023-01-31T07:01:50;3.20;99.90
12335;DHT22;6233;51.560;9.986;2023-01-31T07:04:51;3.20;99.90
12335;DHT22;6233;51.560;9.986;2023-01-31T07:07:53;3.20;99.90
12335;DHT22;6233;51.560;9.986;2023-01-31T07:10:55;3.20;99.90
12335;DHT22;6233;51.560;9.986;2023-01-31T07:13:57;3.30;99.90
12335;DHT22;6233;51.560;9.986;2023-01-31T07:16:59;3.30;99.90
12335;DHT22;6233;51.560;9.986;2023-01-31T07:20:01;3.30;99.90
12335;DHT22;6233;51.560;9.986;2023-01-31T07:23:03;3.30;99.90
12335;DHT22;6233;51.560;9.986;2023-01-31T07:26:05;3.30;99.90
12335;DHT22;6233;51.560;9.986;2023-01-31T07:29:07;3.30;99.90
12335;DHT22;6233;51.560;9.986;2023-01-31T07:32:09;3.30;99.90
12335;DHT22;6233;51.560;9.986;2023-01-31T07:35:11;3.30;99.90
12335;DHT22;6233;51.560;9.986;2023-01-31T07:38:13;3.30;99.90
12335;DHT22;6233;51.560;9.986;2023-01-31T07:41:15;3.30;99.90
12335;DHT22;6233;51.560;9.986;2023-01-31T07:44:17;3.30;99.90
12335;DHT22;6233;51.560;9.986;2023-01-31T07:47:19;3.30;99.90
12335;DHT22;6233;51.560;9.986;2023-01-31T07:50:23;3.30;99.90
12335;DHT22;6233;51.560;9.986;2023-01-31T07:53:29;3.30;99.90
12335;DHT22;6233;51.560;9.986;2023-01-31T07:56:32;3.30;99.90
12335;DHT22;6233;51.560;9.986;2023-01-31T07:59:34;3.20;99.90
12335;DHT22;6233;51.560;9.986;2023-01-31T08:02:36;3.20;99.90
12335;DHT22;6233;51.560;9.986;2023-01-31T08:05:56;3.20;99.90
12335;DHT22;6233;51.560;9.986;2023-01-31T08:08:59;3.20;99.90
12335;DHT22;6233;51.560;9.986;2023-01-31T08:12:01;3.20;99.90
12335;DHT22;6233;51.560;9.986;2023-01-31T08:15:03;3.20;99.90
12335;DHT22;6233;51.560;9.986;2023-01-31T08:18:05;3.20;99.90
12335;DHT22;6233;51.560;9.986;2023-01-31T08:21:07;3.20;99.90
12335;DHT22;6233;51.560;9.986;2023-01-31T08:24:12;3.20;99.90
12335;DHT22;6233;51.560;9.986;2023-01-31T08:27:34;3.30;99.90
12335;DHT22;6233;51.560;9.986;2023-01-31T08:41:31;3.20;99.90
12335;DHT22;6233;51.560;9.986;2023-01-31T08:44:38;3.30;99.90
12335;DHT22;6233;51.560;9.986;2023-01-31T08:47:40;3.40;99.90
12335;DHT22;6233;51.560;9.986;2023-01-31T08:50:44;3.40;99.90
12335;DHT22;6233;51.560;9.986;2023-01-31T08:53:53;3.40;99.90
12335;DHT22;6233;51.560;9.986;2023-01-31T08:57:07;3.40;99.90
12335;DHT22;6233;51.560;9.986;2023-01-31T09:00:09;3.40;99.90
12335;DHT22;6233;51.560;9.986;2023-01-31T09:03:13;3.40;99.90
12335;DHT22;6233;51.560;9.986;2023-01-31T09:06:19;3.40;99.90
12335;DHT22;6233;51.560;9.986;2023-01-31T09:09:21;3.40;99.90
12335;DHT22;6233;51.560;9.986;2023-01-31T09:12:23;3.40;99.90
12335;DHT22;6233;51.560;9.986;2023-01-31T09:15:38;3.40;99.90
12335;DHT22;6233;51.560;9.986;2023-01-31T09:18:40;3.60;99.90
12335;DHT22;6233;51.560;9.986;2023-01-31T09:21:45;3.60;99.90
12335;DHT22;6233;51.560;9.986;2023-01-31T09:24:47;3.50;99.90
12335;DHT22;6233;51.560;9.986;2023-01-31T09:27:58;3.50;99.90
12335;DHT22;6233;51.560;9.986;2023-01-31T09:31:08;3.50;99.90
12335;DHT22;6233;51.560;9.986;2023-01-31T09:34:11;3.50;99.90
12335;DHT22;6233;51.560;9.986;2023-01-31T09:37:17;3.50;99.90
12335;DHT22;6233;51.560;9.986;2023-01-31T09:40:21;3.60;99.90
12335;DHT22;6233;51.560;9.986;2023-01-31T09:43:38;3.60;99.90
12335;DHT22;6233;51.560;9.986;2023-01-31T09:46:46;3.60;99.90
12335;DHT22;6233;51.560;9.986;2023-01-31T09:49:53;3.60;99.90
12335;DHT22;6233;51.560;9.986;2023-01-31T09:52:56;3.70;99.90
12335;DHT22;6233;51.560;9.986;2023-01-31T09:59:33;3.70;99.90
12335;DHT22;6233;51.560;9.986;2023-01-31T10:09:44;3.70;99.90
12335;DHT22;6233;51.560;9.986;2023-01-31T10:12:50;3.70;99.90
12335;DHT22;6233;51.560;9.986;2023-01-31T10:22:58;3.70;99.90
12335;DHT22;6233;51.560;9.986;2023-01-31T10:26:19;3.80;99.90
12335;DHT22;6233;51.560;9.986;2023-01-31T10:29:30;3.70;99.90
12335;DHT22;6233;51.560;9.986;2023-01-31T10:32:38;3.80;99.90
12335;DHT22;6233;51.560;9.986;2023-01-31T10:35:44;3.70;99.90
12335;DHT22;6233;51.560;9.986;2023-01-31T10:42:05;3.60;99.90
12335;DHT22;6233;51.560;9.986;2023-01-31T10:45:22;3.60;99.90
12335;DHT22;6233;51.560;9.986;2023-01-31T10:48:32;3.50;99.90
12335;DHT22;6233;51.560;9.986;2023-01-31T10:58:21;3.40;99.90
12335;DHT22;6233;51.560;9.986;2023-01-31T11:01:24;3.40;99.90
12335;DHT22;6233;51.560;9.986;2023-01-31T11:04:40;3.40;99.90
12335;DHT22;6233;51.560;9.986;2023-01-31T11:07:42;3.40;99.90
12335;DHT22;6233;51.560;9.986;2023-01-31T11:10:53;3.30;99.90
12335;DHT22;6233;51.560;9.986;2023-01-31T11:14:01;3.30;99.90
12335;DHT22;6233;51.560;9.986;2023-01-31T11:20:05;3.30;99.90
12335;DHT22;6233;51.560;9.986;2023-01-31T11:23:16;3.30;99.90
12335;DHT22;6233;51.560;9.986;2023-01-31T11:26:27;3.40;99.90
12335;DHT22;6233;51.560;9.986;2023-01-31T11:29:33;3.30;99.90
12335;DHT22;6233;51.560;9.986;2023-01-31T11:32:36;3.30;99.90
12335;DHT22;6233;51.560;9.986;2023-01-31T11:35:38;3.30;99.90
12335;DHT22;6233;51.560;9.986;2023-01-31T11:38:52;3.30;99.90
12335;DHT22;6233;51.560;9.986;2023-01-31T11:41:55;3.30;99.90
12335;DHT22;6233;51.560;9.986;2023-01-31T11:45:15;3.20;99.90
12335;DHT22;6233;51.560;9.986;2023-01-31T11:48:22;3.20;99.90
12335;DHT22;6233;51.560;9.986;2023-01-31T11:51:27;3.30;99.90
12335;DHT22;6233;51.560;9.986;2023-01-31T11:54:32;3.30;99.90
12335;DHT22;6233;51.560;9.986;2023-01-31T11:57:35;3.30;99.90
12335;DHT22;6233;51.560;9.986;2023-01-31T12:00:49;3.30;99.90
12335;DHT22;6233;51.560;9.986;2023-01-31T12:04:03;3.20;99.90
12335;DHT22;6233;51.560;9.986;2023-01-31T12:07:21;3.20;99.90
12335;DHT22;6233;51.560;9.986;2023-01-31T12:10:34;3.20;99.90
12335;DHT22;6233;51.560;9.986;2023-01-31T12:14:14;3.20;99.90
12335;DHT22;6233;51.560;9.986;2023-01-31T12:17:17;3.20;99.90
12335;DHT22;6233;51.560;9.986;2023-01-31T12:30:47;3.30;99.90
12335;DHT22;6233;51.560;9.986;2023-01-31T12:34:12;3.30;99.90
12335;DHT22;6233;51.560;9.986;2023-01-31T12:37:28;3.30;99.90
12335;DHT22;6233;51.560;9.986;2023-01-31T12:40:50;3.30;99.90
12335;DHT22;6233;51.560;9.986;2023-01-31T12:44:44;3.30;99.90
12335;DHT22;6233;51.560;9.986;2023-01-31T12:51:50;3.30;99.90
12335;DHT22;6233;51.560;9.986;2023-01-31T13:05:46;3.30;99.90
12335;DHT22;6233;51.560;9.986;2023-01-31T13:09:04;3.30;99.90
12335;DHT22;6233;51.560;9.986;2023-01-31T13:12:13;3.30;99.90
12335;DHT22;6233;51.560;9.986;2023-01-31T13:15:50;3.30;99.90
12335;DHT22;6233;51.560;9.986;2023-01-31T13:18:51;3.30;99.90
12335;DHT22;6233;51.560;9.986;2023-01-31T13:21:58;3.30;99.90
12335;DHT22;6233;51.560;9.986;2023-01-31T13:25:20;3.30;99.90
12335;DHT22;6233;51.560;9.986;2023-01-31T13:28:27;3.30;99.90
12335;DHT22;6233;51.560;9.986;2023-01-31T13:31:35;3.30;99.90
12335;DHT22;6233;51.560;9.986;2023-01-31T13:35:04;3.30;99.90
12335;DHT22;6233;51.560;9.986;2023-01-31T13:38:13;3.30;99.90
12335;DHT22;6233;51.560;9.986;2023-01-31T13:44:27;3.30;99.90
12335;DHT22;6233;51.560;9.986;2023-01-31T13:47:41;3.30;99.90
12335;DHT22;6233;51.560;9.986;2023-01-31T13:50:50;3.30;99.90
12335;DHT22;6233;51.560;9.986;2023-01-31T13:57:40;3.30;99.90
12335;DHT22;6233;51.560;9.986;2023-01-31T14:04:42;3.40;99.90
12335;DHT22;6233;51.560;9.986;2023-01-31T14:20:34;3.40;99.90
12335;DHT22;6233;51.560;9.986;2023-01-31T14:23:45;3.40;99.90
12335;DHT22;6233;51.560;9.986;2023-01-31T14:26:51;3.40;99.90
12335;DHT22;6233;51.560;9.986;2023-01-31T14:36:39;3.40;99.90
12335;DHT22;6233;51.560;9.986;2023-01-31T14:40:26;3.40;99.90
12335;DHT22;6233;51.560;9.986;2023-01-31T14:43:56;3.40;99.90
12335;DHT22;6233;51.560;9.986;2023-01-31T15:03:37;3.40;99.90
12335;DHT22;6233;51.560;9.986;2023-01-31T15:06:39;3.40;99.90
12335;DHT22;6233;51.560;9.986;2023-01-31T15:09:47;3.40;99.90
12335;DHT22;6233;51.560;9.986;2023-01-31T15:12:55;3.40;99.90
12335;DHT22;6233;51.560;9.986;2023-01-31T15:16:26;3.40;99.90
12335;DHT22;6233;51.560;9.986;2023-01-31T15:19:29;3.40;99.90
12335;DHT22;6233;51.560;9.986;2023-01-31T15:22:38;3.40;99.90
12335;DHT22;6233;51.560;9.986;2023-01-31T15:25:44;3.40;99.90
12335;DHT22;6233;51.560;9.986;2023-01-31T15:28:46;3.40;99.90
12335;DHT22;6233;51.560;9.986;2023-01-31T15:31:53;3.50;99.90
12335;DHT22;6233;51.560;9.986;2023-01-31T15:35:03;3.50;99.90
12335;DHT22;6233;51.560;9.986;2023-01-31T15:41:41;3.50;99.90
12335;DHT22;6233;51.560;9.986;2023-01-31T15:44:43;3.50;99.90
12335;DHT22;6233;51.560;9.986;2023-01-31T15:48:01;3.50;99.90
12335;DHT22;6233;51.560;9.986;2023-01-31T15:51:03;3.50;99.90
12335;DHT22;6233;51.560;9.986;2023-01-31T15:54:05;3.50;99.90
12335;DHT22;6233;51.560;9.986;2023-01-31T15:57:14;3.60;99.90
12335;DHT22;6233;51.560;9.986;2023-01-31T16:00:30;3.60;99.90
12335;DHT22;6233;51.560;9.986;2023-01-31T16:03:36;3.60;99.90
12335;DHT22;6233;51.560;9.986;2023-01-31T16:06:45;3.60;99.90
12335;DHT22;6233;51.560;9.986;2023-01-31T16:09:47;3.70;99.90
12335;DHT22;6233;51.560;9.986;2023-01-31T16:12:49;3.70;99.90
12335;DHT22;6233;51.560;9.986;2023-01-31T16:15:53;3.70;99.90
12335;DHT22;6233;51.560;9.986;2023-01-31T16:18:58;3.70;99.90
12335;DHT22;6233;51.560;9.986;2023-01-31T16:22:01;3.80;99.90
12335;DHT22;6233;51.560;9.986;2023-01-31T16:25:03;3.80;99.90
12335;DHT22;6233;51.560;9.986;2023-01-31T16:28:08;3.80;99.90
12335;DHT22;6233;51.560;9.986;2023-01-31T16:31:14;3.80;99.90
12335;DHT22;6233;51.560;9.986;2023-01-31T16:34:26;3.90;99.90
12335;DHT22;6233;51.560;9.986;2023-01-31T16:37:35;3.90;99.90
12335;DHT22;6233;51.560;9.986;2023-01-31T16:40:45;3.90;99.90
12335;DHT22;6233;51.560;9.986;2023-01-31T16:43:50;3.90;99.90
12335;DHT22;6233;51.560;9.986;2023-01-31T16:46:52;3.90;99.90
12335;DHT22;6233;51.560;9.986;2023-01-31T16:53:37;4.00;99.90
12335;DHT22;6233;51.560;9.986;2023-01-31T16:56:41;4.00;99.90
12335;DHT22;6233;51.560;9.986;2023-01-31T16:59:47;4.00;99.90
12335;DHT22;6233;51.560;9.986;2023-01-31T17:02:53;4.10;99.90
12335;DHT22;6233;51.560;9.986;2023-01-31T17:05:56;4.10;99.90
12335;DHT22;6233;51.560;9.986;2023-01-31T17:08:57;4.20;99.90
12335;DHT22;6233;51.560;9.986;2023-01-31T17:12:00;4.20;99.90
12335;DHT22;6233;51.560;9.986;2023-01-31T17:15:05;4.20;99.90
12335;DHT22;6233;51.560;9.986;2023-01-31T17:18:15;4.30;99.90
12335;DHT22;6233;51.560;9.986;2023-01-31T17:21:17;4.40;99.90
12335;DHT22;6233;51.560;9.986;2023-01-31T17:24:20;4.50;99.90
12335;DHT22;6233;51.560;9.986;2023-01-31T17:27:24;4.50;99.90
12335;DHT22;6233;51.560;9.986;2023-01-31T17:30:27;4.60;99.90
12335;DHT22;6233;51.560;9.986;2023-01-31T17:33:30;4.60;99.90
12335;DHT22;6233;51.560;9.986;2023-01-31T17:36:32;4.60;99.90
12335;DHT22;6233;51.560;9.986;2023-01-31T17:39:34;4.60;99.90
12335;DHT22;6233;51.560;9.986;2023-01-31T17:42:36;4.60;99.90
12335;DHT22;6233;51.560;9.986;2023-01-31T17:45:37;4.70;99.90
12335;DHT22;6233;51.560;9.986;2023-01-31T17:48:41;4.70;99.90
12335;DHT22;6233;51.560;9.986;2023-01-31T17:51:42;4.70;99.90
12335;DHT22;6233;51.560;9.986;2023-01-31T17:54:45;4.70;99.90
12335;DHT22;6233;51.560;9.986;2023-01-31T17:57:47;4.70;99.90
12335;DHT22;6233;51.560;9.986;2023-01-31T18:00:49;4.70;99.90
12335;DHT22;6233;51.560;9.986;2023-01-31T18:03:51;4.70;99.90
12335;DHT22;6233;51.560;9.986;2023-01-31T18:06:53;4.70;99.90
12335;DHT22;6233;51.560;9.986;2023-01-31T18:09:55;4.70;99.90
12335;DHT22;6233;51.560;9.986;2023-01-31T18:12:59;4.80;99.90
12335;DHT22;6233;51.560;9.986;2023-01-31T18:16:03;4.70;99.90
12335;DHT22;6233;51.560;9.986;2023-01-31T18:19:05;4.80;99.90
12335;DHT22;6233;51.560;9.986;2023-01-31T18:22:06;4.80;99.90
12335;DHT22;6233;51.560;9.986;2023-01-31T18:25:08;4.80;99.90
12335;DHT22;6233;51.560;9.986;2023-01-31T18:28:10;4.80;99.90
12335;DHT22;6233;51.560;9.986;2023-01-31T18:31:37;4.80;99.90
12335;DHT22;6233;51.560;9.986;2023-01-31T18:34:38;4.80;99.90
12335;DHT22;6233;51.560;9.986;2023-01-31T18:37:40;4.80;99.90
12335;DHT22;6233;51.560;9.986;2023-01-31T18:40:42;4.80;99.90
12335;DHT22;6233;51.560;9.986;2023-01-31T18:43:45;4.80;99.90
12335;DHT22;6233;51.560;9.986;2023-01-31T18:46:48;4.70;99.90
12335;DHT22;6233;51.560;9.986;2023-01-31T18:49:49;4.60;99.90
12335;DHT22;6233;51.560;9.986;2023-01-31T18:52:51;4.60;99.90
12335;DHT22;6233;51.560;9.986;2023-01-31T18:56:05;4.60;99.90
12335;DHT22;6233;51.560;9.986;2023-01-31T18:59:09;4.60;99.90
12335;DHT22;6233;51.560;9.986;2023-01-31T19:02:11;4.60;99.90
12335;DHT22;6233;51.560;9.986;2023-01-31T19:05:13;4.60;99.90
12335;DHT22;6233;51.560;9.986;2023-01-31T19:08:15;4.60;99.90
12335;DHT22;6233;51.560;9.986;2023-01-31T19:11:18;4.60;99.90
12335;DHT22;6233;51.560;9.986;2023-01-31T19:14:20;4.70;99.90
12335;DHT22;6233;51.560;9.986;2023-01-31T19:17:22;4.70;99.90
12335;DHT22;6233;51.560;9.986;2023-01-31T19:20:47;4.70;99.90
12335;DHT22;6233;51.560;9.986;2023-01-31T19:23:50;4.70;99.90
12335;DHT22;6233;51.560;9.986;2023-01-31T19:26:52;4.70;99.90
12335;DHT22;6233;51.560;9.986;2023-01-31T19:29:56;4.70;99.90
12335;DHT22;6233;51.560;9.986;2023-01-31T19:32:58;4.70;99.90
12335;DHT22;6233;51.560;9.986;2023-01-31T19:36:11;4.60;99.90
12335;DHT22;6233;51.560;9.986;2023-01-31T19:39:13;4.60;99.90
12335;DHT22;6233;51.560;9.986;2023-01-31T19:42:15;4.60;99.90
12335;DHT22;6233;51.560;9.986;2023-01-31T19:45:17;4.50;99.90
12335;DHT22;6233;51.560;9.986;2023-01-31T19:48:23;4.50;99.90
12335;DHT22;6233;51.560;9.986;2023-01-31T19:51:25;4.50;99.90
12335;DHT22;6233;51.560;9.986;2023-01-31T19:54:27;4.50;99.90
12335;DHT22;6233;51.560;9.986;2023-01-31T19:57:29;4.40;99.90
12335;DHT22;6233;51.560;9.986;2023-01-31T20:00:31;4.40;99.90
12335;DHT22;6233;51.560;9.986;2023-01-31T20:03:33;4.40;99.90
12335;DHT22;6233;51.560;9.986;2023-01-31T20:06:35;4.40;99.90
12335;DHT22;6233;51.560;9.986;2023-01-31T20:09:36;4.40;99.90
12335;DHT22;6233;51.560;9.986;2023-01-31T20:12:38;4.40;99.90
12335;DHT22;6233;51.560;9.986;2023-01-31T20:15:40;4.40;99.90
12335;DHT22;6233;51.560;9.986;2023-01-31T20:18:41;4.40;99.90
12335;DHT22;6233;51.560;9.986;2023-01-31T20:21:43;4.40;99.90
12335;DHT22;6233;51.560;9.986;2023-01-31T20:24:46;4.40;99.90
12335;DHT22;6233;51.560;9.986;2023-01-31T20:27:48;4.50;99.90
12335;DHT22;6233;51.560;9.986;2023-01-31T20:30:50;4.50;99.90
12335;DHT22;6233;51.560;9.986;2023-01-31T20:33:52;4.40;99.90
12335;DHT22;6233;51.560;9.986;2023-01-31T20:36:55;4.40;99.90
12335;DHT22;6233;51.560;9.986;2023-01-31T20:39:57;4.40;99.90
12335;DHT22;6233;51.560;9.986;2023-01-31T20:42:59;4.50;99.90
12335;DHT22;6233;51.560;9.986;2023-01-31T20:46:08;4.40;99.90
12335;DHT22;6233;51.560;9.986;2023-01-31T20:49:11;4.40;99.90
12335;DHT22;6233;51.560;9.986;2023-01-31T20:52:12;4.50;99.90
12335;DHT22;6233;51.560;9.986;2023-01-31T20:55:14;4.50;99.90
12335;DHT22;6233;51.560;9.986;2023-01-31T20:58:17;4.40;99.90
12335;DHT22;6233;51.560;9.986;2023-01-31T21:01:18;4.40;99.90
12335;DHT22;6233;51.560;9.986;2023-01-31T21:04:20;4.40;99.90
12335;DHT22;6233;51.560;9.986;2023-01-31T21:07:22;4.40;99.90
12335;DHT22;6233;51.560;9.986;2023-01-31T21:10:23;4.40;99.90
12335;DHT22;6233;51.560;9.986;2023-01-31T21:13:57;4.40;99.90
12335;DHT22;6233;51.560;9.986;2023-01-31T21:16:58;4.40;99.90
12335;DHT22;6233;51.560;9.986;2023-01-31T21:20:00;4.40;99.90
12335;DHT22;6233;51.560;9.986;2023-01-31T21:23:02;4.40;99.90
12335;DHT22;6233;51.560;9.986;2023-01-31T21:26:07;4.40;99.90
12335;DHT22;6233;51.560;9.986;2023-01-31T21:29:09;4.40;99.90
12335;DHT22;6233;51.560;9.986;2023-01-31T21:32:11;4.30;99.90
12335;DHT22;6233;51.560;9.986;2023-01-31T21:35:13;4.30;99.90
12335;DHT22;6233;51.560;9.986;2023-01-31T21:38:15;4.30;99.90
12335;DHT22;6233;51.560;9.986;2023-01-31T21:41:23;4.20;99.90
12335;DHT22;6233;51.560;9.986;2023-01-31T21:44:45;4.20;99.90
12335;DHT22;6233;51.560;9.986;2023-01-31T21:48:13;4.10;99.90
12335;DHT22;6233;51.560;9.986;2023-01-31T21:51:30;4.10;99.90
12335;DHT22;6233;51.560;9.986;2023-01-31T21:54:32;4.20;99.90
12335;DHT22;6233;51.560;9.986;2023-01-31T21:57:34;4.10;99.90
12335;DHT22;6233;51.560;9.986;2023-01-31T22:00:46;4.10;99.90
12335;DHT22;6233;51.560;9.986;2023-01-31T22:04:06;4.10;99.90
12335;DHT22;6233;51.560;9.986;2023-01-31T22:07:08;4.10;99.90
12335;DHT22;6233;51.560;9.986;2023-01-31T22:10:10;4.10;99.90
12335;DHT22;6233;51.560;9.986;2023-01-31T22:13:11;4.10;99.90
12335;DHT22;6233;51.560;9.986;2023-01-31T22:16:14;4.10;99.90
12335;DHT22;6233;51.560;9.986;2023-01-31T22:19:16;4.20;99.90
12335;DHT22;6233;51.560;9.986;2023-01-31T22:22:18;4.20;99.90
12335;DHT22;6233;51.560;9.986;2023-01-31T22:25:20;4.30;99.90
12335;DHT22;6233;51.560;9.986;2023-01-31T22:28:22;4.30;99.90
12335;DHT22;6233;51.560;9.986;2023-01-31T22:31:27;4.30;99.90
12335;DHT22;6233;51.560;9.986;2023-01-31T22:34:29;4.30;99.90
12335;DHT22;6233;51.560;9.986;2023-01-31T22:37:31;4.30;99.90
12335;DHT22;6233;51.560;9.986;2023-01-31T22:40:32;4.30;99.90
12335;DHT22;6233;51.560;9.986;2023-01-31T22:43:36;4.30;99.90
12335;DHT22;6233;51.560;9.986;2023-01-31T22:46:38;4.30;99.90
12335;DHT22;6233;51.560;9.986;2023-01-31T22:49:40;4.30;99.90
12335;DHT22;6233;51.560;9.986;2023-01-31T22:52:42;4.30;99.90